SWR517 EDDF-EGLL
Flight info
| Callsign | SWR517 |
|---|---|
| Flight time | 1h 23m |
| Altitude | 38000 |
| Route | OBOKA3W/25C OBOKA Z29 TORNU DCT ABNED L980 LOGAN |
| Aircraft | A20N/M-SDE2E3FGHIRWXY/LB1 |
Departure
| Time | 2026-05-07 16:09 |
|---|---|
| Airport | Frankfurt Main Airport (EDDF) |
Arrival
| Time | 2026-05-07 17:32 |
|---|---|
| Airport | London Heathrow Airport (EGLL) |
| Time | Latitude | Longitude | Altitude | Speed | Heading |
|---|---|---|---|---|---|
| 2026-05-07 15:35 | 50.04640 | 8.56667 | 359 ft | 0 kts | 113° |
| 2026-05-07 15:50 | 50.04642 | 8.56660 | 359 ft | 2 kts | 114° |
| 2026-05-07 15:51 | 50.04650 | 8.56637 | 362 ft | 2 kts | 123° |
| 2026-05-07 15:51 | 50.04659 | 8.56617 | 360 ft | 2 kts | 131° |
| 2026-05-07 15:51 | 50.04671 | 8.56600 | 366 ft | 2 kts | 150° |
| 2026-05-07 15:51 | 50.04686 | 8.56589 | 361 ft | 2 kts | 167° |
| 2026-05-07 15:52 | 50.04702 | 8.56587 | 361 ft | 2 kts | 193° |
| 2026-05-07 15:52 | 50.04718 | 8.56595 | 361 ft | 2 kts | 209° |
| 2026-05-07 15:52 | 50.04729 | 8.56607 | 361 ft | 1 kts | 226° |
| 2026-05-07 15:52 | 50.04730 | 8.56608 | 367 ft | 0 kts | 229° |
| 2026-05-07 15:57 | 50.04716 | 8.56584 | 366 ft | 0 kts | 229° |
| 2026-05-07 15:57 | 50.04716 | 8.56583 | 366 ft | 0 kts | 229° |
| 2026-05-07 15:58 | 50.04673 | 8.56553 | 360 ft | 12 kts | 187° |
| 2026-05-07 15:58 | 50.04612 | 8.56516 | 363 ft | 1 kts | 205° |
| 2026-05-07 15:58 | 50.04588 | 8.56498 | 366 ft | 6 kts | 206° |
| 2026-05-07 15:58 | 50.04581 | 8.56492 | 363 ft | 0 kts | 207° |
| 2026-05-07 15:59 | 50.04579 | 8.56490 | 363 ft | 2 kts | 207° |
| 2026-05-07 15:59 | 50.04547 | 8.56453 | 361 ft | 9 kts | 225° |
| 2026-05-07 15:59 | 50.04503 | 8.56351 | 359 ft | 14 kts | 247° |
| 2026-05-07 15:59 | 50.04470 | 8.56209 | 365 ft | 14 kts | 250° |
| 2026-05-07 16:00 | 50.04466 | 8.56191 | 360 ft | 0 kts | 250° |
| 2026-05-07 16:00 | 50.04462 | 8.56173 | 360 ft | 7 kts | 250° |
| 2026-05-07 16:00 | 50.04447 | 8.56105 | 360 ft | 6 kts | 250° |
| 2026-05-07 16:00 | 50.04383 | 8.56038 | 362 ft | 15 kts | 175° |
| 2026-05-07 16:01 | 50.04371 | 8.56047 | 359 ft | 6 kts | 151° |
| 2026-05-07 16:01 | 50.04311 | 8.56071 | 360 ft | 2 kts | 177° |
| 2026-05-07 16:01 | 50.04278 | 8.56058 | 358 ft | 7 kts | 211° |
| 2026-05-07 16:01 | 50.04248 | 8.55990 | 354 ft | 8 kts | 243° |
| 2026-05-07 16:02 | 50.04224 | 8.55937 | 357 ft | 2 kts | 227° |
| 2026-05-07 16:02 | 50.04195 | 8.55920 | 352 ft | 7 kts | 187° |
| 2026-05-07 16:02 | 50.04133 | 8.55944 | 350 ft | 11 kts | 161° |
| 2026-05-07 16:02 | 50.04077 | 8.56019 | 355 ft | 11 kts | 101° |
| 2026-05-07 16:03 | 50.04091 | 8.56131 | 354 ft | 11 kts | 71° |
| 2026-05-07 16:03 | 50.04120 | 8.56254 | 356 ft | 13 kts | 67° |
| 2026-05-07 16:03 | 50.04159 | 8.56404 | 360 ft | 16 kts | 68° |
| 2026-05-07 16:03 | 50.04195 | 8.56554 | 363 ft | 14 kts | 71° |
| 2026-05-07 16:04 | 50.04226 | 8.56699 | 367 ft | 14 kts | 71° |
| 2026-05-07 16:04 | 50.04258 | 8.56844 | 370 ft | 14 kts | 71° |
| 2026-05-07 16:04 | 50.04294 | 8.56980 | 367 ft | 15 kts | 67° |
| 2026-05-07 16:04 | 50.04322 | 8.57089 | 368 ft | 18 kts | 68° |
| 2026-05-07 16:05 | 50.04376 | 8.57304 | 367 ft | 16 kts | 69° |
| 2026-05-07 16:05 | 50.04418 | 8.57485 | 367 ft | 19 kts | 71° |
| 2026-05-07 16:05 | 50.04460 | 8.57679 | 369 ft | 19 kts | 70° |
| 2026-05-07 16:05 | 50.04508 | 8.57885 | 372 ft | 21 kts | 70° |
| 2026-05-07 16:06 | 50.04544 | 8.58022 | 371 ft | 17 kts | 66° |
| 2026-05-07 16:06 | 50.04570 | 8.58125 | 371 ft | 12 kts | 70° |
| 2026-05-07 16:06 | 50.04601 | 8.58257 | 372 ft | 14 kts | 70° |
| 2026-05-07 16:06 | 50.04634 | 8.58401 | 373 ft | 15 kts | 70° |
| 2026-05-07 16:07 | 50.04639 | 8.58551 | 370 ft | 15 kts | 125° |
| 2026-05-07 16:07 | 50.04579 | 8.58606 | 369 ft | 10 kts | 157° |
| 2026-05-07 16:07 | 50.04516 | 8.58614 | 371 ft | 9 kts | 204° |
| 2026-05-07 16:07 | 50.04481 | 8.58550 | 372 ft | 0 kts | 243° |
| 2026-05-07 16:08 | 50.04479 | 8.58545 | 372 ft | 4 kts | 243° |
| 2026-05-07 16:08 | 50.04389 | 8.58175 | 370 ft | 75 kts | 250° |
| 2026-05-07 16:08 | 50.04112 | 8.57028 | 370 ft | 148 kts | 250° |
| 2026-05-07 16:09 | 50.03676 | 8.55267 | 653 ft | 180 kts | 248° |
| 2026-05-07 16:09 | 50.03230 | 8.53524 | 1636 ft | 184 kts | 249° |
| 2026-05-07 16:09 | 50.02732 | 8.51620 | 2586 ft | 191 kts | 250° |
| 2026-05-07 16:09 | 50.02102 | 8.49648 | 3332 ft | 212 kts | 233° |
| 2026-05-07 16:10 | 50.00952 | 8.48231 | 4185 ft | 217 kts | 202° |
| 2026-05-07 16:10 | 49.99497 | 8.47795 | 5256 ft | 214 kts | 187° |
| 2026-05-07 16:10 | 49.97987 | 8.47534 | 6187 ft | 216 kts | 189° |
| 2026-05-07 16:10 | 49.96487 | 8.47214 | 6778 ft | 222 kts | 191° |
| 2026-05-07 16:11 | 49.94989 | 8.46624 | 6997 ft | 227 kts | 200° |
| 2026-05-07 16:11 | 49.93373 | 8.45825 | 7045 ft | 252 kts | 199° |
| 2026-05-07 16:11 | 49.91768 | 8.44760 | 7068 ft | 249 kts | 217° |
| 2026-05-07 16:11 | 49.90596 | 8.42813 | 7063 ft | 248 kts | 240° |
| 2026-05-07 16:12 | 49.90063 | 8.41344 | 7040 ft | 249 kts | 242° |
| 2026-05-07 16:12 | 49.89340 | 8.39414 | 7287 ft | 237 kts | 241° |
| 2026-05-07 16:12 | 49.89206 | 8.39056 | 7328 ft | 238 kts | 242° |
| 2026-05-07 16:13 | 49.88706 | 8.37086 | 7495 ft | 250 kts | 260° |
| 2026-05-07 16:13 | 49.88660 | 8.34379 | 8429 ft | 250 kts | 277° |
| 2026-05-07 16:13 | 49.88847 | 8.31637 | 9116 ft | 267 kts | 275° |
| 2026-05-07 16:13 | 49.89021 | 8.28709 | 9846 ft | 277 kts | 279° |
| 2026-05-07 16:14 | 49.89573 | 8.25798 | 10551 ft | 290 kts | 294° |
| 2026-05-07 16:14 | 49.90694 | 8.23083 | 10894 ft | 314 kts | 308° |
| 2026-05-07 16:14 | 49.92075 | 8.20360 | 11312 ft | 332 kts | 306° |
| 2026-05-07 16:14 | 49.93489 | 8.17430 | 12143 ft | 336 kts | 308° |
| 2026-05-07 16:15 | 49.95063 | 8.14749 | 12752 ft | 342 kts | 316° |
| 2026-05-07 16:15 | 49.96870 | 8.12342 | 12972 ft | 344 kts | 319° |
| 2026-05-07 16:15 | 49.98701 | 8.09923 | 13046 ft | 344 kts | 318° |
| 2026-05-07 16:15 | 50.00514 | 8.07499 | 13254 ft | 347 kts | 318° |
| 2026-05-07 16:16 | 50.02352 | 8.05031 | 14065 ft | 348 kts | 318° |
| 2026-05-07 16:16 | 50.04184 | 8.02569 | 14833 ft | 351 kts | 318° |
| 2026-05-07 16:16 | 50.05575 | 8.00700 | 15392 ft | 354 kts | 318° |
| 2026-05-07 16:16 | 50.07454 | 7.98174 | 16109 ft | 358 kts | 318° |
| 2026-05-07 16:17 | 50.09340 | 7.95636 | 16828 ft | 362 kts | 318° |
| 2026-05-07 16:17 | 50.11273 | 7.93033 | 17559 ft | 366 kts | 318° |
| 2026-05-07 16:17 | 50.13210 | 7.90422 | 18262 ft | 370 kts | 318° |
| 2026-05-07 16:17 | 50.15168 | 7.87782 | 18899 ft | 374 kts | 318° |
| 2026-05-07 16:18 | 50.17146 | 7.85112 | 19512 ft | 377 kts | 317° |
| 2026-05-07 16:18 | 50.19120 | 7.82445 | 19890 ft | 380 kts | 317° |
| 2026-05-07 16:18 | 50.21131 | 7.79725 | 20025 ft | 381 kts | 317° |
| 2026-05-07 16:18 | 50.23130 | 7.77018 | 20037 ft | 381 kts | 317° |
| 2026-05-07 16:19 | 50.25238 | 7.74482 | 20038 ft | 382 kts | 325° |
| 2026-05-07 16:19 | 50.27526 | 7.72434 | 20040 ft | 384 kts | 332° |
| 2026-05-07 16:19 | 50.29973 | 7.70763 | 20036 ft | 385 kts | 335° |
| 2026-05-07 16:19 | 50.32441 | 7.69091 | 20040 ft | 385 kts | 334° |
| 2026-05-07 16:20 | 50.34901 | 7.67397 | 20036 ft | 385 kts | 334° |
| 2026-05-07 16:20 | 50.37341 | 7.65713 | 20039 ft | 384 kts | 334° |
| 2026-05-07 16:20 | 50.39773 | 7.64036 | 20044 ft | 385 kts | 334° |
| 2026-05-07 16:20 | 50.42240 | 7.62337 | 20042 ft | 385 kts | 334° |
| 2026-05-07 16:21 | 50.44687 | 7.60651 | 20041 ft | 385 kts | 334° |
| 2026-05-07 16:21 | 50.47121 | 7.58975 | 20045 ft | 384 kts | 334° |
| 2026-05-07 16:21 | 50.49574 | 7.57283 | 20046 ft | 385 kts | 334° |
| 2026-05-07 16:21 | 50.52049 | 7.55572 | 20045 ft | 385 kts | 334° |
| 2026-05-07 16:22 | 50.54494 | 7.53881 | 20044 ft | 385 kts | 334° |
| 2026-05-07 16:22 | 50.56841 | 7.51946 | 20043 ft | 383 kts | 326° |
| 2026-05-07 16:22 | 50.59068 | 7.49627 | 20043 ft | 383 kts | 324° |
| 2026-05-07 16:22 | 50.61312 | 7.47313 | 20041 ft | 383 kts | 325° |
| 2026-05-07 16:23 | 50.63547 | 7.45030 | 20045 ft | 383 kts | 325° |
| 2026-05-07 16:23 | 50.65789 | 7.42741 | 20048 ft | 383 kts | 325° |
| 2026-05-07 16:23 | 50.68010 | 7.40466 | 20045 ft | 383 kts | 325° |
| 2026-05-07 16:23 | 50.70247 | 7.38170 | 20032 ft | 383 kts | 325° |
| 2026-05-07 16:24 | 50.72445 | 7.35817 | 20054 ft | 382 kts | 320° |
| 2026-05-07 16:24 | 50.74382 | 7.32890 | 20054 ft | 381 kts | 309° |
| 2026-05-07 16:24 | 50.75885 | 7.29533 | 20037 ft | 379 kts | 298° |
| 2026-05-07 16:24 | 50.77080 | 7.25816 | 20043 ft | 379 kts | 295° |
| 2026-05-07 16:25 | 50.78289 | 7.22071 | 20064 ft | 379 kts | 296° |
| 2026-05-07 16:25 | 50.79495 | 7.18384 | 20034 ft | 379 kts | 296° |
| 2026-05-07 16:25 | 50.80702 | 7.14699 | 20037 ft | 379 kts | 296° |
| 2026-05-07 16:25 | 50.81911 | 7.10995 | 20063 ft | 379 kts | 296° |
| 2026-05-07 16:26 | 50.83109 | 7.07308 | 20037 ft | 379 kts | 296° |
| 2026-05-07 16:26 | 50.84311 | 7.03597 | 20038 ft | 379 kts | 296° |
| 2026-05-07 16:26 | 50.85514 | 6.99874 | 20064 ft | 379 kts | 296° |
| 2026-05-07 16:26 | 50.86710 | 6.96170 | 20043 ft | 380 kts | 296° |
| 2026-05-07 16:27 | 50.87917 | 6.92426 | 20034 ft | 379 kts | 296° |
| 2026-05-07 16:27 | 50.89120 | 6.88687 | 20064 ft | 379 kts | 296° |
| 2026-05-07 16:27 | 50.90312 | 6.84976 | 20043 ft | 380 kts | 296° |
| 2026-05-07 16:27 | 50.91499 | 6.81276 | 20047 ft | 379 kts | 296° |
| 2026-05-07 16:28 | 50.92695 | 6.77547 | 20047 ft | 379 kts | 296° |
| 2026-05-07 16:28 | 50.93898 | 6.73787 | 20049 ft | 379 kts | 296° |
| 2026-05-07 16:28 | 50.95079 | 6.70092 | 20050 ft | 379 kts | 296° |
| 2026-05-07 16:28 | 50.96270 | 6.66356 | 20053 ft | 379 kts | 296° |
| 2026-05-07 16:29 | 50.97469 | 6.62591 | 20045 ft | 379 kts | 296° |
| 2026-05-07 16:29 | 50.98654 | 6.58863 | 20049 ft | 379 kts | 296° |
| 2026-05-07 16:29 | 50.99829 | 6.55162 | 20046 ft | 379 kts | 296° |
| 2026-05-07 16:29 | 51.01016 | 6.51419 | 20046 ft | 379 kts | 296° |
| 2026-05-07 16:30 | 51.02195 | 6.47694 | 20042 ft | 379 kts | 296° |
| 2026-05-07 16:30 | 51.03376 | 6.43954 | 20045 ft | 379 kts | 296° |
| 2026-05-07 16:30 | 51.04556 | 6.40214 | 20046 ft | 378 kts | 296° |
| 2026-05-07 16:30 | 51.05744 | 6.36444 | 20046 ft | 379 kts | 296° |
| 2026-05-07 16:31 | 51.06920 | 6.32702 | 20046 ft | 378 kts | 295° |
| 2026-05-07 16:31 | 51.08107 | 6.28923 | 20045 ft | 378 kts | 295° |
| 2026-05-07 16:31 | 51.09263 | 6.25236 | 20045 ft | 378 kts | 295° |
| 2026-05-07 16:31 | 51.10439 | 6.21480 | 20048 ft | 378 kts | 295° |
| 2026-05-07 16:32 | 51.11606 | 6.17744 | 20045 ft | 378 kts | 295° |
| 2026-05-07 16:32 | 51.12781 | 6.13983 | 20046 ft | 378 kts | 295° |
| 2026-05-07 16:32 | 51.13870 | 6.10176 | 20047 ft | 378 kts | 290° |
| 2026-05-07 16:32 | 51.14657 | 6.06173 | 20045 ft | 377 kts | 283° |
| 2026-05-07 16:33 | 51.15288 | 6.02107 | 20043 ft | 378 kts | 283° |
| 2026-05-07 16:33 | 51.15946 | 5.98054 | 20046 ft | 378 kts | 284° |
| 2026-05-07 16:33 | 51.16605 | 5.94035 | 20049 ft | 378 kts | 284° |
| 2026-05-07 16:33 | 51.17266 | 5.89988 | 20047 ft | 378 kts | 284° |
| 2026-05-07 16:34 | 51.17926 | 5.85926 | 20047 ft | 378 kts | 283° |
| 2026-05-07 16:34 | 51.18696 | 5.81946 | 20045 ft | 379 kts | 290° |
| 2026-05-07 16:34 | 51.19738 | 5.78069 | 20043 ft | 379 kts | 292° |
| 2026-05-07 16:34 | 51.20769 | 5.74217 | 20048 ft | 379 kts | 292° |
| 2026-05-07 16:35 | 51.21801 | 5.70307 | 20043 ft | 379 kts | 292° |
| 2026-05-07 16:35 | 51.22803 | 5.66494 | 20058 ft | 379 kts | 292° |
| 2026-05-07 16:35 | 51.23831 | 5.62584 | 20056 ft | 379 kts | 292° |
| 2026-05-07 16:35 | 51.24853 | 5.58690 | 20059 ft | 378 kts | 292° |
| 2026-05-07 16:36 | 51.25863 | 5.54838 | 20064 ft | 379 kts | 292° |
| 2026-05-07 16:36 | 51.26880 | 5.50952 | 20064 ft | 378 kts | 292° |
| 2026-05-07 16:36 | 51.27887 | 5.47099 | 20068 ft | 378 kts | 291° |
| 2026-05-07 16:36 | 51.28907 | 5.43183 | 20067 ft | 379 kts | 291° |
| 2026-05-07 16:37 | 51.29908 | 5.39335 | 20071 ft | 378 kts | 291° |
| 2026-05-07 16:37 | 51.30910 | 5.35478 | 20070 ft | 378 kts | 291° |
| 2026-05-07 16:37 | 51.31920 | 5.31585 | 20069 ft | 378 kts | 291° |
| 2026-05-07 16:37 | 51.32934 | 5.27671 | 20073 ft | 378 kts | 291° |
| 2026-05-07 16:38 | 51.33935 | 5.23803 | 20070 ft | 379 kts | 291° |
| 2026-05-07 16:38 | 51.34945 | 5.19889 | 20072 ft | 378 kts | 291° |
| 2026-05-07 16:38 | 51.35942 | 5.16021 | 20069 ft | 378 kts | 291° |
| 2026-05-07 16:38 | 51.36949 | 5.12108 | 20071 ft | 378 kts | 291° |
| 2026-05-07 16:39 | 51.37933 | 5.08275 | 20072 ft | 378 kts | 291° |
| 2026-05-07 16:39 | 51.38939 | 5.04353 | 20066 ft | 378 kts | 291° |
| 2026-05-07 16:39 | 51.39928 | 5.00490 | 20068 ft | 378 kts | 291° |
| 2026-05-07 16:39 | 51.40923 | 4.96595 | 20062 ft | 377 kts | 291° |
| 2026-05-07 16:40 | 51.41913 | 4.92713 | 20072 ft | 377 kts | 291° |
| 2026-05-07 16:40 | 51.42907 | 4.88812 | 20065 ft | 377 kts | 291° |
| 2026-05-07 16:40 | 51.43887 | 4.84957 | 20064 ft | 377 kts | 291° |
| 2026-05-07 16:40 | 51.44886 | 4.81017 | 20078 ft | 377 kts | 291° |
| 2026-05-07 16:41 | 51.45864 | 4.77152 | 20067 ft | 377 kts | 291° |
| 2026-05-07 16:41 | 51.46858 | 4.73215 | 20067 ft | 377 kts | 291° |
| 2026-05-07 16:41 | 51.47835 | 4.69345 | 20078 ft | 377 kts | 291° |
| 2026-05-07 16:41 | 51.48820 | 4.65433 | 20072 ft | 377 kts | 291° |
| 2026-05-07 16:42 | 51.49794 | 4.61560 | 20072 ft | 376 kts | 291° |
| 2026-05-07 16:42 | 51.50783 | 4.57623 | 20072 ft | 377 kts | 291° |
| 2026-05-07 16:42 | 51.51747 | 4.53774 | 20078 ft | 374 kts | 291° |
| 2026-05-07 16:42 | 51.52717 | 4.49900 | 20066 ft | 380 kts | 291° |
| 2026-05-07 16:43 | 51.53696 | 4.45982 | 20073 ft | 376 kts | 291° |
| 2026-05-07 16:43 | 51.54666 | 4.42095 | 20081 ft | 376 kts | 291° |
| 2026-05-07 16:43 | 51.55650 | 4.38146 | 20067 ft | 377 kts | 291° |
| 2026-05-07 16:43 | 51.56620 | 4.34240 | 20080 ft | 376 kts | 291° |
| 2026-05-07 16:44 | 51.57581 | 4.30370 | 20074 ft | 377 kts | 291° |
| 2026-05-07 16:44 | 51.58558 | 4.26430 | 20070 ft | 376 kts | 291° |
| 2026-05-07 16:44 | 51.59516 | 4.22558 | 20073 ft | 376 kts | 291° |
| 2026-05-07 16:44 | 51.60483 | 4.18640 | 20068 ft | 376 kts | 291° |
| 2026-05-07 16:45 | 51.61451 | 4.14714 | 20078 ft | 375 kts | 291° |
| 2026-05-07 16:45 | 51.62401 | 4.10850 | 20067 ft | 375 kts | 291° |
| 2026-05-07 16:45 | 51.63366 | 4.06918 | 20067 ft | 375 kts | 291° |
| 2026-05-07 16:45 | 51.64319 | 4.03028 | 20075 ft | 375 kts | 291° |
| 2026-05-07 16:46 | 51.65273 | 3.99129 | 20072 ft | 374 kts | 290° |
| 2026-05-07 16:46 | 51.66232 | 3.95203 | 20071 ft | 374 kts | 290° |
| 2026-05-07 16:46 | 51.67183 | 3.91298 | 20069 ft | 374 kts | 290° |
| 2026-05-07 16:46 | 51.68123 | 3.87433 | 20062 ft | 374 kts | 290° |
| 2026-05-07 16:47 | 51.69074 | 3.83519 | 20069 ft | 373 kts | 290° |
| 2026-05-07 16:47 | 51.70015 | 3.79646 | 20073 ft | 373 kts | 290° |
| 2026-05-07 16:47 | 51.70958 | 3.75750 | 20071 ft | 372 kts | 290° |
| 2026-05-07 16:47 | 51.71903 | 3.71840 | 20073 ft | 372 kts | 290° |
| 2026-05-07 16:48 | 51.72842 | 3.67944 | 20073 ft | 372 kts | 290° |
| 2026-05-07 16:48 | 51.73771 | 3.64085 | 20075 ft | 373 kts | 290° |
| 2026-05-07 16:48 | 51.74707 | 3.60193 | 20078 ft | 372 kts | 290° |
| 2026-05-07 16:48 | 51.75638 | 3.56309 | 20072 ft | 372 kts | 290° |
| 2026-05-07 16:49 | 51.76575 | 3.52394 | 20071 ft | 372 kts | 290° |
| 2026-05-07 16:49 | 51.77508 | 3.48487 | 20079 ft | 372 kts | 290° |
| 2026-05-07 16:49 | 51.78427 | 3.44635 | 20075 ft | 373 kts | 290° |
| 2026-05-07 16:49 | 51.79053 | 3.42009 | 20078 ft | 372 kts | 290° |
| 2026-05-07 16:50 | 51.80289 | 3.36813 | 20083 ft | 372 kts | 290° |
| 2026-05-07 16:50 | 51.81214 | 3.32912 | 20085 ft | 372 kts | 289° |
| 2026-05-07 16:50 | 51.82146 | 3.28978 | 20089 ft | 372 kts | 289° |
| 2026-05-07 16:50 | 51.82761 | 3.26378 | 20087 ft | 372 kts | 289° |
| 2026-05-07 16:51 | 51.83676 | 3.22503 | 20087 ft | 372 kts | 289° |
| 2026-05-07 16:51 | 51.84382 | 3.18469 | 20088 ft | 371 kts | 279° |
| 2026-05-07 16:51 | 51.84643 | 3.14291 | 20084 ft | 370 kts | 270° |
| 2026-05-07 16:51 | 51.84481 | 3.10213 | 20095 ft | 370 kts | 262° |
| 2026-05-07 16:52 | 51.84173 | 3.06078 | 20078 ft | 370 kts | 263° |
| 2026-05-07 16:52 | 51.83900 | 3.01875 | 20085 ft | 370 kts | 264° |
| 2026-05-07 16:52 | 51.83644 | 2.97797 | 20090 ft | 370 kts | 264° |
| 2026-05-07 16:52 | 51.83377 | 2.93609 | 20086 ft | 370 kts | 264° |
| 2026-05-07 16:53 | 51.83111 | 2.89516 | 20088 ft | 370 kts | 264° |
| 2026-05-07 16:53 | 51.82836 | 2.85352 | 20073 ft | 370 kts | 264° |
| 2026-05-07 16:53 | 51.82559 | 2.81171 | 20089 ft | 370 kts | 264° |
| 2026-05-07 16:53 | 51.82287 | 2.77081 | 20088 ft | 370 kts | 264° |
| 2026-05-07 16:54 | 51.82010 | 2.72955 | 20067 ft | 370 kts | 263° |
| 2026-05-07 16:54 | 51.81728 | 2.68780 | 20091 ft | 370 kts | 263° |
| 2026-05-07 16:54 | 51.81445 | 2.64626 | 20089 ft | 371 kts | 263° |
| 2026-05-07 16:54 | 51.81161 | 2.60498 | 20066 ft | 371 kts | 263° |
| 2026-05-07 16:55 | 51.80878 | 2.56394 | 20089 ft | 370 kts | 263° |
| 2026-05-07 16:55 | 51.80589 | 2.52227 | 20087 ft | 371 kts | 263° |
| 2026-05-07 16:55 | 51.80302 | 2.48120 | 20064 ft | 371 kts | 263° |
| 2026-05-07 16:55 | 51.80015 | 2.44020 | 20094 ft | 370 kts | 263° |
| 2026-05-07 16:56 | 51.79722 | 2.39851 | 20092 ft | 371 kts | 263° |
| 2026-05-07 16:56 | 51.79431 | 2.35741 | 20063 ft | 371 kts | 263° |
| 2026-05-07 16:56 | 51.78840 | 2.27463 | 20075 ft | 371 kts | 263° |
| 2026-05-07 16:57 | 51.78544 | 2.23333 | 20072 ft | 371 kts | 263° |
| 2026-05-07 16:57 | 51.78254 | 2.19152 | 20086 ft | 371 kts | 264° |
| 2026-05-07 16:57 | 51.78014 | 2.15067 | 20043 ft | 367 kts | 265° |
| 2026-05-07 16:57 | 51.77787 | 2.10989 | 19951 ft | 357 kts | 265° |
| 2026-05-07 16:58 | 51.77566 | 2.07077 | 19849 ft | 344 kts | 265° |
| 2026-05-07 16:58 | 51.77346 | 2.03281 | 19732 ft | 331 kts | 264° |
| 2026-05-07 16:58 | 51.77132 | 1.99664 | 19619 ft | 319 kts | 264° |
| 2026-05-07 16:58 | 51.76922 | 1.96164 | 19417 ft | 310 kts | 264° |
| 2026-05-07 16:59 | 51.76713 | 1.92695 | 19014 ft | 308 kts | 264° |
| 2026-05-07 16:59 | 51.76504 | 1.89262 | 18610 ft | 307 kts | 264° |
| 2026-05-07 16:59 | 51.76297 | 1.85874 | 18210 ft | 305 kts | 264° |
| 2026-05-07 16:59 | 51.76090 | 1.82497 | 17778 ft | 303 kts | 264° |
| 2026-05-07 17:00 | 51.75880 | 1.79093 | 17342 ft | 301 kts | 264° |
| 2026-05-07 17:00 | 51.75672 | 1.75748 | 16918 ft | 300 kts | 264° |
| 2026-05-07 17:00 | 51.75463 | 1.72398 | 16505 ft | 298 kts | 264° |
| 2026-05-07 17:00 | 51.75258 | 1.69121 | 16184 ft | 293 kts | 264° |
| 2026-05-07 17:01 | 51.75052 | 1.65850 | 16086 ft | 295 kts | 264° |
| 2026-05-07 17:01 | 51.74843 | 1.62535 | 16071 ft | 297 kts | 265° |
| 2026-05-07 17:01 | 51.74633 | 1.59226 | 16073 ft | 293 kts | 264° |
| 2026-05-07 17:01 | 51.74450 | 1.56354 | 16069 ft | 279 kts | 264° |
| 2026-05-07 17:02 | 51.74292 | 1.53885 | 16079 ft | 264 kts | 265° |
| 2026-05-07 17:02 | 51.74110 | 1.51037 | 16073 ft | 258 kts | 264° |
| 2026-05-07 17:02 | 51.73924 | 1.48122 | 16079 ft | 261 kts | 264° |
| 2026-05-07 17:02 | 51.73737 | 1.45191 | 16086 ft | 260 kts | 264° |
| 2026-05-07 17:03 | 51.73551 | 1.42317 | 16076 ft | 260 kts | 264° |
| 2026-05-07 17:03 | 51.73361 | 1.39399 | 16009 ft | 259 kts | 264° |
| 2026-05-07 17:03 | 51.73172 | 1.36510 | 15737 ft | 258 kts | 264° |
| 2026-05-07 17:03 | 51.72983 | 1.33626 | 15375 ft | 258 kts | 264° |
| 2026-05-07 17:04 | 51.72796 | 1.30791 | 15027 ft | 257 kts | 265° |
| 2026-05-07 17:04 | 51.72606 | 1.27904 | 14667 ft | 256 kts | 265° |
| 2026-05-07 17:04 | 51.72418 | 1.25080 | 14308 ft | 255 kts | 265° |
| 2026-05-07 17:04 | 51.72228 | 1.22218 | 13962 ft | 254 kts | 265° |
| 2026-05-07 17:05 | 51.72040 | 1.19390 | 13592 ft | 253 kts | 265° |
| 2026-05-07 17:05 | 51.71851 | 1.16569 | 13220 ft | 252 kts | 265° |
| 2026-05-07 17:05 | 51.71662 | 1.13760 | 12842 ft | 251 kts | 265° |
| 2026-05-07 17:05 | 51.71476 | 1.10991 | 12494 ft | 250 kts | 265° |
| 2026-05-07 17:06 | 51.71287 | 1.08202 | 12137 ft | 249 kts | 265° |
| 2026-05-07 17:06 | 51.71100 | 1.05453 | 11789 ft | 248 kts | 265° |
| 2026-05-07 17:06 | 51.70927 | 1.02905 | 11467 ft | 247 kts | 265° |
| 2026-05-07 17:07 | 51.70856 | 1.01879 | 11361 ft | 243 kts | 265° |
| 2026-05-07 17:07 | 51.70851 | 1.01795 | 11352 ft | 243 kts | 265° |
| 2026-05-07 17:07 | 51.70827 | 1.01446 | 11322 ft | 240 kts | 265° |
| 2026-05-07 17:08 | 51.70765 | 1.00555 | 11365 ft | 227 kts | 265° |
| 2026-05-07 17:08 | 51.70601 | 0.98193 | 11097 ft | 199 kts | 265° |
| 2026-05-07 17:08 | 51.70449 | 0.95990 | 10460 ft | 196 kts | 265° |
| 2026-05-07 17:08 | 51.70396 | 0.95222 | 10229 ft | 195 kts | 265° |
| 2026-05-07 17:09 | 51.70247 | 0.93035 | 9484 ft | 196 kts | 265° |
| 2026-05-07 17:09 | 51.70088 | 0.90700 | 8521 ft | 228 kts | 265° |
| 2026-05-07 17:09 | 51.69909 | 0.88082 | 8302 ft | 244 kts | 265° |
| 2026-05-07 17:09 | 51.69719 | 0.85369 | 8111 ft | 238 kts | 265° |
| 2026-05-07 17:10 | 51.69533 | 0.82738 | 8080 ft | 236 kts | 265° |
| 2026-05-07 17:10 | 51.69351 | 0.80120 | 8073 ft | 238 kts | 265° |
| 2026-05-07 17:10 | 51.69165 | 0.77454 | 8074 ft | 238 kts | 265° |
| 2026-05-07 17:10 | 51.68977 | 0.74802 | 8073 ft | 238 kts | 265° |
| 2026-05-07 17:11 | 51.68788 | 0.72142 | 8073 ft | 238 kts | 265° |
| 2026-05-07 17:11 | 51.68600 | 0.69507 | 8074 ft | 238 kts | 264° |
| 2026-05-07 17:11 | 51.68410 | 0.66844 | 8074 ft | 238 kts | 264° |
| 2026-05-07 17:11 | 51.68222 | 0.64193 | 8078 ft | 239 kts | 264° |
| 2026-05-07 17:12 | 51.68029 | 0.61517 | 8071 ft | 239 kts | 264° |
| 2026-05-07 17:12 | 51.67840 | 0.58900 | 8072 ft | 239 kts | 264° |
| 2026-05-07 17:12 | 51.67648 | 0.56232 | 8073 ft | 239 kts | 264° |
| 2026-05-07 17:12 | 51.67457 | 0.53589 | 8071 ft | 239 kts | 264° |
| 2026-05-07 17:13 | 51.67264 | 0.50935 | 8068 ft | 239 kts | 264° |
| 2026-05-07 17:13 | 51.67069 | 0.48256 | 8072 ft | 239 kts | 264° |
| 2026-05-07 17:13 | 51.66875 | 0.45613 | 8072 ft | 239 kts | 264° |
| 2026-05-07 17:13 | 51.66680 | 0.42953 | 8071 ft | 239 kts | 264° |
| 2026-05-07 17:14 | 51.66485 | 0.40304 | 8062 ft | 239 kts | 264° |
| 2026-05-07 17:14 | 51.66287 | 0.37627 | 8066 ft | 239 kts | 264° |
| 2026-05-07 17:14 | 51.66093 | 0.35002 | 8062 ft | 239 kts | 264° |
| 2026-05-07 17:14 | 51.65896 | 0.32354 | 8052 ft | 239 kts | 264° |
| 2026-05-07 17:15 | 51.65696 | 0.29675 | 8047 ft | 239 kts | 264° |
| 2026-05-07 17:15 | 51.65497 | 0.27018 | 8052 ft | 239 kts | 264° |
| 2026-05-07 17:15 | 51.65297 | 0.24352 | 8049 ft | 239 kts | 264° |
| 2026-05-07 17:15 | 51.65084 | 0.21689 | 8048 ft | 239 kts | 262° |
| 2026-05-07 17:16 | 51.64812 | 0.19072 | 8048 ft | 239 kts | 261° |
| 2026-05-07 17:16 | 51.64535 | 0.16419 | 8045 ft | 239 kts | 261° |
| 2026-05-07 17:16 | 51.64259 | 0.13775 | 8046 ft | 239 kts | 261° |
| 2026-05-07 17:16 | 51.63987 | 0.11158 | 8051 ft | 239 kts | 261° |
| 2026-05-07 17:17 | 51.63713 | 0.08514 | 8050 ft | 239 kts | 261° |
| 2026-05-07 17:17 | 51.63439 | 0.05872 | 8049 ft | 239 kts | 261° |
| 2026-05-07 17:17 | 51.63167 | 0.03259 | 8049 ft | 239 kts | 261° |
| 2026-05-07 17:17 | 51.62895 | 0.00625 | 8051 ft | 238 kts | 261° |
| 2026-05-07 17:18 | 51.62622 | -0.02002 | 8039 ft | 238 kts | 261° |
| 2026-05-07 17:18 | 51.62347 | -0.04649 | 8051 ft | 239 kts | 261° |
| 2026-05-07 17:18 | 51.62077 | -0.07249 | 8045 ft | 238 kts | 261° |
| 2026-05-07 17:18 | 51.61802 | -0.09886 | 8075 ft | 239 kts | 261° |
| 2026-05-07 17:19 | 51.61524 | -0.12528 | 8066 ft | 238 kts | 261° |
| 2026-05-07 17:19 | 51.61250 | -0.15118 | 7901 ft | 236 kts | 261° |
| 2026-05-07 17:19 | 51.60973 | -0.17732 | 7553 ft | 236 kts | 261° |
| 2026-05-07 17:19 | 51.60703 | -0.20297 | 7216 ft | 234 kts | 261° |
| 2026-05-07 17:20 | 51.60430 | -0.22882 | 7098 ft | 236 kts | 261° |
| 2026-05-07 17:20 | 51.60153 | -0.25506 | 7069 ft | 236 kts | 261° |
| 2026-05-07 17:20 | 51.59877 | -0.28105 | 7044 ft | 236 kts | 261° |
| 2026-05-07 17:20 | 51.59601 | -0.30686 | 7045 ft | 236 kts | 261° |
| 2026-05-07 17:21 | 51.59318 | -0.33313 | 7046 ft | 236 kts | 261° |
| 2026-05-07 17:21 | 51.59037 | -0.35890 | 7047 ft | 236 kts | 261° |
| 2026-05-07 17:21 | 51.58754 | -0.38482 | 7039 ft | 236 kts | 261° |
| 2026-05-07 17:21 | 51.58468 | -0.41087 | 7054 ft | 236 kts | 261° |
| 2026-05-07 17:22 | 51.58181 | -0.43679 | 7054 ft | 235 kts | 261° |
| 2026-05-07 17:22 | 51.57890 | -0.46278 | 7039 ft | 236 kts | 261° |
| 2026-05-07 17:22 | 51.57599 | -0.48882 | 7042 ft | 236 kts | 261° |
| 2026-05-07 17:22 | 51.57312 | -0.51455 | 7041 ft | 235 kts | 261° |
| 2026-05-07 17:23 | 51.57024 | -0.54012 | 6876 ft | 233 kts | 261° |
| 2026-05-07 17:23 | 51.56733 | -0.56583 | 6538 ft | 233 kts | 261° |
| 2026-05-07 17:23 | 51.56441 | -0.59159 | 6152 ft | 233 kts | 261° |
| 2026-05-07 17:23 | 51.56149 | -0.61727 | 5793 ft | 232 kts | 261° |
| 2026-05-07 17:24 | 51.55863 | -0.64243 | 5444 ft | 230 kts | 261° |
| 2026-05-07 17:24 | 51.55574 | -0.66764 | 5089 ft | 229 kts | 261° |
| 2026-05-07 17:24 | 51.55283 | -0.69287 | 4761 ft | 228 kts | 261° |
| 2026-05-07 17:24 | 51.54997 | -0.71763 | 4418 ft | 228 kts | 261° |
| 2026-05-07 17:25 | 51.54707 | -0.74263 | 4098 ft | 226 kts | 261° |
| 2026-05-07 17:25 | 51.54424 | -0.76695 | 3993 ft | 214 kts | 261° |
| 2026-05-07 17:25 | 51.54157 | -0.78977 | 3978 ft | 198 kts | 261° |
| 2026-05-07 17:25 | 51.53907 | -0.81081 | 3988 ft | 190 kts | 261° |
| 2026-05-07 17:26 | 51.53655 | -0.83208 | 3980 ft | 191 kts | 261° |
| 2026-05-07 17:26 | 51.53384 | -0.85292 | 3982 ft | 192 kts | 255° |
| 2026-05-07 17:26 | 51.52665 | -0.87083 | 4008 ft | 195 kts | 216° |
| 2026-05-07 17:26 | 51.51415 | -0.87805 | 3971 ft | 192 kts | 176° |
| 2026-05-07 17:27 | 51.50171 | -0.87118 | 3967 ft | 193 kts | 140° |
| 2026-05-07 17:27 | 51.49322 | -0.85463 | 3965 ft | 194 kts | 123° |
| 2026-05-07 17:27 | 51.48600 | -0.83703 | 3973 ft | 191 kts | 121° |
| 2026-05-07 17:27 | 51.47941 | -0.81863 | 3984 ft | 189 kts | 111° |
| 2026-05-07 17:28 | 51.47613 | -0.79814 | 3960 ft | 190 kts | 95° |
| 2026-05-07 17:28 | 51.47545 | -0.77746 | 3770 ft | 189 kts | 88° |
| 2026-05-07 17:28 | 51.47560 | -0.75634 | 3519 ft | 186 kts | 87° |
| 2026-05-07 17:28 | 51.47569 | -0.73553 | 3260 ft | 186 kts | 88° |
| 2026-05-07 17:29 | 51.47582 | -0.71539 | 3004 ft | 172 kts | 87° |
| 2026-05-07 17:29 | 51.47593 | -0.69721 | 2787 ft | 156 kts | 87° |
| 2026-05-07 17:29 | 51.47605 | -0.67966 | 2573 ft | 159 kts | 87° |
| 2026-05-07 17:29 | 51.47617 | -0.66200 | 2359 ft | 158 kts | 87° |
| 2026-05-07 17:30 | 51.47627 | -0.64445 | 2149 ft | 157 kts | 88° |
| 2026-05-07 17:30 | 51.47638 | -0.62672 | 1926 ft | 156 kts | 87° |
| 2026-05-07 17:30 | 51.47651 | -0.60943 | 1716 ft | 157 kts | 88° |
| 2026-05-07 17:30 | 51.47662 | -0.59178 | 1496 ft | 157 kts | 88° |
| 2026-05-07 17:31 | 51.47674 | -0.57446 | 1279 ft | 156 kts | 87° |
| 2026-05-07 17:31 | 51.47687 | -0.55707 | 1048 ft | 155 kts | 88° |
| 2026-05-07 17:31 | 51.47705 | -0.53977 | 811 ft | 153 kts | 90° |
| 2026-05-07 17:31 | 51.47735 | -0.52274 | 574 ft | 153 kts | 90° |
| 2026-05-07 17:32 | 51.47768 | -0.50538 | 317 ft | 161 kts | 91° |
| 2026-05-07 17:32 | 51.47785 | -0.48817 | 162 ft | 149 kts | 93° |
| 2026-05-07 17:32 | 51.47748 | -0.47238 | 87 ft | 121 kts | 96° |
| 2026-05-07 17:32 | 51.47728 | -0.46649 | 92 ft | 32 kts | 88° |
| 2026-05-07 17:33 | 51.47755 | -0.46341 | 93 ft | 24 kts | 86° |
| 2026-05-07 17:33 | 51.47754 | -0.46267 | 90 ft | 5 kts | 96° |
| 2026-05-07 17:33 | 51.47727 | -0.46181 | 91 ft | 12 kts | 131° |
| 2026-05-07 17:33 | 51.47677 | -0.46112 | 86 ft | 0 kts | 143° |
| 2026-05-07 17:35 | 51.47659 | -0.46092 | 88 ft | 6 kts | 148° |
| 2026-05-07 17:35 | 51.47608 | -0.46064 | 85 ft | 8 kts | 176° |
| 2026-05-07 17:36 | 51.47555 | -0.46082 | 90 ft | 8 kts | 201° |
| 2026-05-07 17:36 | 51.47533 | -0.46104 | 91 ft | 0 kts | 217° |
| 2026-05-07 17:37 | 51.47530 | -0.46104 | 88 ft | 0 kts | 195° |
| 2026-05-07 17:37 | 51.47529 | -0.46103 | 88 ft | 0 kts | 181° |
| 2026-05-07 17:38 | 51.47529 | -0.46102 | 88 ft | 0 kts | 174° |
| 2026-05-07 17:38 | 51.47527 | -0.46097 | 88 ft | 1 kts | 140° |
| 2026-05-07 17:38 | 51.47514 | -0.46022 | 89 ft | 12 kts | 98° |
| 2026-05-07 17:38 | 51.47470 | -0.46020 | 89 ft | 9 kts | 240° |
| 2026-05-07 17:39 | 51.47464 | -0.46136 | 88 ft | 13 kts | 278° |
| 2026-05-07 17:39 | 51.47481 | -0.46246 | 90 ft | 5 kts | 278° |
| 2026-05-07 17:39 | 51.47483 | -0.46271 | 88 ft | 5 kts | 278° |
| 2026-05-07 17:39 | 51.47486 | -0.46360 | 89 ft | 10 kts | 270° |
| 2026-05-07 17:40 | 51.47486 | -0.46489 | 91 ft | 13 kts | 270° |
| 2026-05-07 17:40 | 51.47488 | -0.46647 | 90 ft | 16 kts | 272° |
| 2026-05-07 17:40 | 51.47493 | -0.46813 | 86 ft | 13 kts | 272° |
| 2026-05-07 17:40 | 51.47494 | -0.46920 | 89 ft | 10 kts | 269° |
| 2026-05-07 17:41 | 51.47493 | -0.47038 | 89 ft | 12 kts | 269° |
| 2026-05-07 17:41 | 51.47491 | -0.47168 | 88 ft | 9 kts | 269° |
| 2026-05-07 17:41 | 51.47490 | -0.47268 | 86 ft | 0 kts | 268° |
| 2026-05-07 17:42 | 51.47482 | -0.47312 | 86 ft | 7 kts | 235° |
| 2026-05-07 17:42 | 51.47430 | -0.47350 | 88 ft | 10 kts | 184° |
| 2026-05-07 17:42 | 51.47349 | -0.47359 | 89 ft | 13 kts | 184° |
| 2026-05-07 17:42 | 51.47252 | -0.47359 | 89 ft | 15 kts | 177° |
| 2026-05-07 17:43 | 51.47136 | -0.47353 | 86 ft | 18 kts | 180° |
| 2026-05-07 17:43 | 51.47011 | -0.47354 | 90 ft | 18 kts | 179° |
| 2026-05-07 17:43 | 51.46882 | -0.47352 | 83 ft | 17 kts | 179° |
| 2026-05-07 17:43 | 51.46854 | -0.47351 | 83 ft | 6 kts | 179° |
| 2026-05-07 17:44 | 51.46818 | -0.47350 | 83 ft | 0 kts | 179° |
| 2026-05-07 17:45 | 51.46807 | -0.47350 | 83 ft | 7 kts | 179° |
| 2026-05-07 17:45 | 51.46752 | -0.47291 | 84 ft | 9 kts | 88° |
| 2026-05-07 17:46 | 51.46744 | -0.47182 | 86 ft | 12 kts | 98° |
| 2026-05-07 17:46 | 51.46750 | -0.47039 | 85 ft | 13 kts | 85° |
| 2026-05-07 17:46 | 51.46752 | -0.46899 | 87 ft | 13 kts | 91° |
| 2026-05-07 17:46 | 51.46750 | -0.46753 | 89 ft | 14 kts | 92° |
| 2026-05-07 17:47 | 51.46748 | -0.46605 | 89 ft | 0 kts | 89° |
| 2026-05-07 17:47 | 51.46748 | -0.46588 | 90 ft | 5 kts | 89° |
| 2026-05-07 17:47 | 51.46748 | -0.46481 | 88 ft | 14 kts | 90° |
| 2026-05-07 17:47 | 51.46747 | -0.46290 | 90 ft | 21 kts | 91° |
| 2026-05-07 17:48 | 51.46750 | -0.46030 | 82 ft | 25 kts | 91° |
| 2026-05-07 17:48 | 51.46746 | -0.45755 | 87 ft | 26 kts | 89° |
| 2026-05-07 17:48 | 51.46749 | -0.45458 | 86 ft | 25 kts | 93° |
| 2026-05-07 17:48 | 51.46752 | -0.45255 | 86 ft | 12 kts | 88° |
| 2026-05-07 17:49 | 51.46753 | -0.45174 | 86 ft | 0 kts | 89° |
| 2026-05-07 17:49 | 51.46753 | -0.45171 | 86 ft | 2 kts | 89° |
| 2026-05-07 17:49 | 51.46754 | -0.45112 | 86 ft | 9 kts | 89° |
| 2026-05-07 17:49 | 51.46754 | -0.45057 | 86 ft | 1 kts | 89° |
| 2026-05-07 17:50 | 51.46756 | -0.45022 | 88 ft | 5 kts | 77° |
| 2026-05-07 17:50 | 51.46782 | -0.44971 | 90 ft | 7 kts | 34° |
| 2026-05-07 17:50 | 51.46825 | -0.44978 | 86 ft | 0 kts | 2° |
| 2026-05-07 17:50 | 51.46828 | -0.44978 | 87 ft | 2 kts | 1° |
| 2026-05-07 17:51 | 51.46829 | -0.44978 | 87 ft | 0 kts | 1° |
| 2026-05-07 17:51 | 51.46833 | -0.44978 | 87 ft | 2 kts | 360° |
| 2026-05-07 17:51 | 51.46837 | -0.44978 | 87 ft | 0 kts | 357° |